createdAt,value
2019-05-21T00:00:02.978Z,97073.02
2019-05-21T00:01:07.221Z,97068.55
2019-05-21T00:02:10.865Z,97073.94
2019-05-21T00:03:15.073Z,97072.94
2019-05-21T00:04:27.950Z,97074.41
2019-05-21T00:05:25.180Z,97074.41
2019-05-21T00:06:28.875Z,97076.31
2019-05-21T00:07:33.131Z,97072.86
2019-05-21T00:08:36.770Z,97066.12
2019-05-21T00:09:40.988Z,97065.89
2019-05-21T00:10:44.717Z,97071.97
2019-05-21T00:11:48.909Z,97081.03
2019-05-21T00:12:52.532Z,97081.03
2019-05-21T00:13:56.742Z,97071.81
2019-05-21T00:15:00.442Z,97067.21
2019-05-21T00:16:04.705Z,97058.86
2019-05-21T00:17:08.341Z,97050.85
2019-05-21T00:18:12.620Z,97050.85
2019-05-21T00:19:16.622Z,97065.42
2019-05-21T00:20:21.018Z,97070.17
2019-05-21T00:21:24.711Z,97070.95
2019-05-21T00:22:28.900Z,97065.30
2019-05-21T00:23:32.531Z,97065.30
2019-05-21T00:24:36.842Z,97074.41
2019-05-21T00:25:40.839Z,97074.41
2019-05-21T00:26:45.023Z,97075.98
2019-05-21T00:27:48.714Z,97077.55
2019-05-21T00:29:28.959Z,97073.73
2019-05-21T00:31:09.100Z,97072.30
2019-05-21T00:32:49.367Z,97079.05
2019-05-21T00:34:43.266Z,97068.07
2019-05-21T00:36:12.011Z,97073.46
2019-05-21T00:37:52.700Z,97076.27
2019-05-21T00:39:32.379Z,97083.63
2019-05-21T00:41:12.968Z,97082.55
2019-05-21T00:42:19.523Z,97082.66
2019-05-21T00:43:41.902Z,97084.73
2019-05-21T00:44:45.927Z,97085.88
2019-05-21T00:45:50.131Z,97079.28
2019-05-21T00:46:53.776Z,97085.00
2019-05-21T00:47:57.964Z,97086.12
2019-05-21T00:49:02.582Z,97080.32
2019-05-21T00:50:08.472Z,97085.31
2019-05-21T00:51:12.125Z,97086.44
2019-05-21T00:52:16.424Z,97082.54
2019-05-21T00:53:20.034Z,97089.75
2019-05-21T00:54:24.260Z,97094.91
2019-05-21T00:55:28.015Z,97093.61
2019-05-21T00:56:32.527Z,97090.91
2019-05-21T00:57:36.161Z,97086.62
2019-05-21T00:58:40.367Z,97085.95
2019-05-21T00:59:44.027Z,97082.56
2019-05-21T01:00:48.206Z,97081.67
2019-05-21T01:01:51.922Z,97077.41
2019-05-21T01:02:56.220Z,97081.91
2019-05-21T01:03:59.853Z,97084.73
2019-05-21T01:05:04.370Z,97081.71
2019-05-21T01:06:08.025Z,97087.19
2019-05-21T01:07:12.287Z,97091.67
2019-05-21T01:08:16.024Z,97091.81
2019-05-21T01:09:20.333Z,97091.81
2019-05-21T01:10:23.993Z,97100.31
2019-05-21T01:11:28.205Z,97094.93
2019-05-21T01:12:32.142Z,97095.38
2019-05-21T01:13:36.345Z,97095.61
2019-05-21T01:14:40.000Z,97095.61
2019-05-21T01:15:44.320Z,97101.89
2019-05-21T01:16:48.026Z,97094.05
2019-05-21T01:17:52.335Z,97100.31
2019-05-21T01:18:55.962Z,97103.70
2019-05-21T01:20:00.151Z,97103.70
2019-05-21T01:21:04.296Z,97102.70
2019-05-21T01:22:08.510Z,97100.31
2019-05-21T01:23:12.147Z,97098.74
2019-05-21T01:24:16.433Z,97098.74
2019-05-21T01:25:20.063Z,97097.40
2019-05-21T01:26:24.295Z,97099.89
2019-05-21T01:27:27.932Z,97099.89
2019-05-21T01:28:32.138Z,97100.88
2019-05-21T01:29:35.775Z,97097.77
2019-05-21T01:30:39.954Z,97088.98
2019-05-21T01:31:43.959Z,97089.31
2019-05-21T01:32:48.145Z,97094.16
2019-05-21T01:33:51.822Z,97096.55
2019-05-21T01:34:56.130Z,97101.75
2019-05-21T01:36:00.151Z,97100.41
2019-05-21T01:37:04.377Z,97104.44
2019-05-21T01:38:08.134Z,97104.22
2019-05-21T01:39:12.745Z,97107.33
2019-05-21T01:40:16.370Z,97109.83
2019-05-21T01:41:20.652Z,97110.39
2019-05-21T01:42:24.318Z,97111.73
2019-05-21T01:43:28.864Z,97102.87
2019-05-21T01:44:32.543Z,97101.84
2019-05-21T01:45:36.732Z,97103.52
2019-05-21T01:46:40.299Z,97099.25
2019-05-21T01:47:44.649Z,97098.13
2019-05-21T01:48:48.312Z,97094.31
2019-05-21T01:49:52.555Z,97094.31
2019-05-21T01:50:56.182Z,97095.21
2019-05-21T01:52:00.362Z,97100.59
2019-05-21T01:53:04.063Z,97105.98
2019-05-21T01:54:08.345Z,97102.95
2019-05-21T01:55:11.986Z,97108.12
2019-05-21T01:56:16.175Z,97114.85
2019-05-21T01:57:20.243Z,97116.42
2019-05-21T01:58:24.459Z,97118.33
2019-05-21T01:59:28.143Z,97116.98
2019-05-21T02:00:32.452Z,97112.70
2019-05-21T02:01:36.082Z,97108.01
2019-05-21T02:02:40.239Z,97111.83
2019-05-21T02:03:43.937Z,97111.59
2019-05-21T02:04:48.244Z,97111.05
2019-05-21T02:05:52.152Z,97104.98
2019-05-21T02:06:59.027Z,97106.44
2019-05-21T02:08:02.669Z,97106.44
2019-05-21T02:09:08.178Z,97108.25
2019-05-21T02:10:12.140Z,97113.63
2019-05-21T02:11:16.446Z,97114.75
2019-05-21T02:12:20.513Z,97116.09
2019-05-21T02:13:24.816Z,97115.11
2019-05-21T02:14:28.508Z,97107.50
2019-05-21T02:15:32.750Z,97116.70
2019-05-21T02:16:36.807Z,97112.99
2019-05-21T02:17:41.236Z,97108.85
2019-05-21T02:18:44.866Z,97114.89
2019-05-21T02:19:49.162Z,97111.18
2019-05-21T02:20:52.794Z,97111.73
2019-05-21T02:21:57.000Z,97107.61
2019-05-21T02:23:00.761Z,97107.61
2019-05-21T02:24:05.066Z,97106.03
2019-05-21T02:25:09.753Z,97102.22
2019-05-21T02:26:14.076Z,97099.77
2019-05-21T02:27:18.009Z,97101.33
2019-05-21T02:28:22.537Z,97097.49
2019-05-21T02:29:26.174Z,97097.40
2019-05-21T02:30:30.422Z,97101.98
2019-05-21T02:31:36.114Z,97101.98
2019-05-21T02:32:41.068Z,97099.30
2019-05-21T02:33:44.607Z,97090.77
2019-05-21T02:34:49.185Z,97104.34
2019-05-21T02:35:54.837Z,97106.25
2019-05-21T02:36:58.822Z,97105.47
2019-05-21T02:38:02.447Z,97109.50
2019-05-21T02:39:08.748Z,97107.37
2019-05-21T02:40:12.898Z,97104.68
2019-05-21T02:41:17.119Z,97105.80
2019-05-21T02:42:20.698Z,97100.31
2019-05-21T02:43:25.296Z,97100.31
2019-05-21T02:44:28.863Z,97103.42
2019-05-21T02:45:33.039Z,97103.42
2019-05-21T02:46:36.734Z,97102.86
2019-05-21T02:47:40.939Z,97093.91
2019-05-21T02:48:44.567Z,97101.42
2019-05-21T02:49:48.779Z,97104.44
2019-05-21T02:50:52.804Z,97103.32
2019-05-21T02:51:57.018Z,97108.48
2019-05-21T02:53:00.668Z,97107.36
2019-05-21T02:54:05.329Z,97108.70
2019-05-21T02:55:09.369Z,97107.36
2019-05-21T02:56:13.581Z,97104.67
2019-05-21T02:57:17.341Z,97112.61
2019-05-21T02:58:21.546Z,97114.52
2019-05-21T02:59:25.172Z,97111.27
2019-05-21T03:00:30.537Z,97109.72
2019-05-21T03:01:35.831Z,97109.27
2019-05-21T03:02:42.902Z,97114.88
2019-05-21T03:03:46.530Z,97110.84
2019-05-21T03:04:51.019Z,97116.45
2019-05-21T03:06:12.460Z,97112.97
2019-05-21T03:07:04.815Z,97116.89
2019-05-21T03:08:08.541Z,97123.06
2019-05-21T03:09:12.774Z,97124.88
2019-05-21T03:10:16.404Z,97126.45
2019-05-21T03:11:20.593Z,97134.29
2019-05-21T03:12:24.311Z,97131.93
2019-05-21T03:13:28.615Z,97134.30
2019-05-21T03:14:32.249Z,97131.06
2019-05-21T03:15:36.447Z,97123.34
2019-05-21T03:16:40.071Z,97130.96
2019-05-21T03:17:44.259Z,97125.81
2019-05-21T03:18:48.009Z,97125.91
2019-05-21T03:19:52.345Z,97126.14
2019-05-21T03:20:55.970Z,97126.14
2019-05-21T03:22:00.161Z,97124.23
2019-05-21T03:23:03.833Z,97121.21
2019-05-21T03:24:08.008Z,97126.03
2019-05-21T03:25:12.276Z,97123.77
2019-05-21T03:26:16.778Z,97123.77
2019-05-21T03:27:20.452Z,97131.84
2019-05-21T03:28:25.054Z,97128.04
2019-05-21T03:29:28.656Z,97128.83
2019-05-21T03:30:32.909Z,97132.30
2019-05-21T03:31:36.537Z,97131.88
2019-05-21T03:32:40.734Z,97134.57
2019-05-21T03:33:44.447Z,97134.53
2019-05-21T03:34:48.756Z,97134.53
2019-05-21T03:35:52.485Z,97129.16
2019-05-21T03:36:56.761Z,97122.23
2019-05-21T03:38:00.398Z,97135.33
2019-05-21T03:39:05.715Z,97132.63
2019-05-21T03:40:09.642Z,97137.23
2019-05-21T03:41:13.992Z,97127.16
2019-05-21T03:42:17.620Z,97132.44
2019-05-21T03:43:21.873Z,97128.05
2019-05-21T03:44:25.550Z,97130.96
2019-05-21T03:45:29.727Z,97135.69
2019-05-21T03:46:34.322Z,97130.27
2019-05-21T03:47:38.580Z,97134.53
2019-05-21T03:48:42.227Z,97135.22
2019-05-21T03:49:46.523Z,97138.79
2019-05-21T03:50:50.549Z,97141.16
2019-05-21T03:51:54.766Z,97139.67
2019-05-21T03:52:58.394Z,97136.52
2019-05-21T03:54:02.512Z,97138.88
2019-05-21T03:55:06.295Z,97141.23
2019-05-21T03:56:10.601Z,97137.63
2019-05-21T03:57:14.260Z,97145.38
2019-05-21T03:58:18.505Z,97140.80
2019-05-21T03:59:22.623Z,97135.16
2019-05-21T04:00:26.818Z,97142.58
2019-05-21T04:01:30.501Z,97137.98
2019-05-21T04:02:34.724Z,97144.38
2019-05-21T04:03:38.798Z,97140.80
2019-05-21T04:04:43.000Z,97147.16
2019-05-21T04:05:46.627Z,97145.71
2019-05-21T04:06:52.941Z,97143.43
2019-05-21T04:07:56.865Z,97143.43
2019-05-21T04:09:00.977Z,97139.16
2019-05-21T04:10:14.898Z,97149.73
2019-05-21T04:11:19.089Z,97149.73
2019-05-21T04:12:22.695Z,97147.05
2019-05-21T04:13:28.159Z,97154.20
2019-05-21T04:14:33.453Z,97153.98
2019-05-21T04:15:56.910Z,97152.98
2019-05-21T04:17:02.805Z,97151.75
2019-05-21T04:18:27.138Z,97158.48
2019-05-21T04:19:44.397Z,97159.60
2019-05-21T04:20:48.517Z,97155.92
2019-05-21T04:21:52.246Z,97159.41
2019-05-21T04:22:56.598Z,97153.00
2019-05-21T04:24:00.255Z,97156.72
2019-05-21T04:25:11.075Z,97151.80
2019-05-21T04:26:14.869Z,97152.10
2019-05-21T04:27:19.051Z,97154.47
2019-05-21T04:28:22.701Z,97159.77
2019-05-21T04:29:27.031Z,97157.41
2019-05-21T04:30:30.649Z,97156.39
2019-05-21T04:31:35.230Z,97153.37
2019-05-21T04:32:38.876Z,97160.09
2019-05-21T04:33:43.069Z,97155.59
2019-05-21T04:34:46.804Z,97159.52
2019-05-21T04:35:51.112Z,97160.18
2019-05-21T04:37:09.392Z,97160.98
2019-05-21T04:38:00.854Z,97152.23
2019-05-21T04:39:05.987Z,97152.23
2019-05-21T04:40:10.505Z,97170.63
2019-05-21T04:41:14.216Z,97164.78
2019-05-21T04:42:18.417Z,97167.28
2019-05-21T04:43:22.428Z,97168.17
2019-05-21T04:44:26.649Z,97158.18
2019-05-21T04:45:30.301Z,97158.18
2019-05-21T04:46:34.501Z,97167.72
2019-05-21T04:47:38.162Z,97170.17
2019-05-21T04:48:42.395Z,97171.52
2019-05-21T04:49:46.029Z,97171.52
2019-05-21T04:50:50.280Z,97176.22
2019-05-21T04:51:53.910Z,97178.80
2019-05-21T04:52:58.094Z,97177.00
2019-05-21T04:54:01.781Z,97169.27
2019-05-21T04:55:07.096Z,97169.27
2019-05-21T04:56:10.689Z,97167.48
2019-05-21T04:57:14.880Z,97167.48
2019-05-21T04:58:18.490Z,97178.02
2019-05-21T04:59:22.645Z,97173.98
2019-05-21T05:00:26.320Z,97173.85
2019-05-21T05:01:30.597Z,97179.47
2019-05-21T05:02:34.231Z,97183.39
2019-05-21T05:03:38.424Z,97182.28
2019-05-21T05:04:42.143Z,97177.59
2019-05-21T05:05:46.350Z,97176.47
2019-05-21T05:06:50.085Z,97177.59
2019-05-21T05:07:54.410Z,97180.84
2019-05-21T05:08:58.029Z,97174.69
2019-05-21T05:10:02.665Z,97176.82
2019-05-21T05:11:06.316Z,97179.16
2019-05-21T05:12:10.545Z,97175.57
2019-05-21T05:13:14.211Z,97168.59
2019-05-21T05:14:18.771Z,97168.59
2019-05-21T05:15:22.417Z,97178.69
2019-05-21T05:16:26.726Z,97178.36
2019-05-21T05:17:30.380Z,97179.14
2019-05-21T05:18:34.569Z,97177.80
2019-05-21T05:19:38.686Z,97181.14
2019-05-21T05:20:42.892Z,97180.91
2019-05-21T05:21:46.504Z,97174.86
2019-05-21T05:22:50.727Z,97172.07
2019-05-21T05:23:54.381Z,97177.33
2019-05-21T05:24:58.564Z,97177.33
2019-05-21T05:26:04.270Z,97168.13
2019-05-21T05:27:08.482Z,97171.47
2019-05-21T05:28:12.144Z,97167.55
2019-05-21T05:29:16.463Z,97164.05
2019-05-21T05:30:20.255Z,97165.16
2019-05-21T05:31:24.661Z,97161.54
2019-05-21T05:32:28.294Z,97161.62
2019-05-21T05:33:33.483Z,97150.98
2019-05-21T05:34:37.111Z,97147.59
2019-05-21T05:35:41.295Z,97159.43
2019-05-21T05:36:45.073Z,97147.30
2019-05-21T05:37:49.389Z,97158.28
2019-05-21T05:38:53.052Z,97156.69
2019-05-21T05:39:57.682Z,97155.76
2019-05-21T05:41:01.892Z,97157.30
2019-05-21T05:42:06.077Z,97156.04
2019-05-21T05:43:12.356Z,97145.81
2019-05-21T05:44:19.454Z,97154.10
2019-05-21T05:45:23.281Z,97154.10
2019-05-21T05:46:27.495Z,97155.38
2019-05-21T05:47:31.123Z,97149.84
2019-05-21T05:48:36.390Z,97156.22
2019-05-21T05:49:42.087Z,97157.00
2019-05-21T05:50:50.141Z,97157.00
2019-05-21T05:51:53.978Z,97158.41
2019-05-21T05:52:58.317Z,97154.97
2019-05-21T05:54:02.127Z,97155.50
2019-05-21T05:55:07.978Z,97161.12
2019-05-21T05:56:14.038Z,97159.84
2019-05-21T05:57:18.359Z,97158.18
2019-05-21T05:58:22.175Z,97158.18
2019-05-21T05:59:26.389Z,97144.73
2019-05-21T06:00:30.142Z,97155.13
2019-05-21T06:01:34.643Z,97148.70
2019-05-21T06:02:38.289Z,97150.08
2019-05-21T06:03:42.504Z,97148.17
2019-05-21T06:04:46.502Z,97146.17
2019-05-21T06:05:50.732Z,97144.70
2019-05-21T06:06:54.495Z,97151.39
2019-05-21T06:08:00.413Z,97147.00
2019-05-21T06:09:05.595Z,97149.42
2019-05-21T06:10:09.931Z,97156.09
2019-05-21T06:11:13.594Z,97149.64
2019-05-21T06:12:17.788Z,97146.56
2019-05-21T06:13:21.842Z,97151.86
2019-05-21T06:14:26.055Z,97150.56
2019-05-21T06:15:29.689Z,97146.72
2019-05-21T06:16:33.971Z,97146.01
2019-05-21T06:17:37.762Z,97149.97
2019-05-21T06:18:42.401Z,97150.50
2019-05-21T06:19:46.189Z,97147.77
2019-05-21T06:20:50.392Z,97147.69
2019-05-21T06:21:54.167Z,97149.44
2019-05-21T06:22:58.381Z,97147.17
2019-05-21T06:24:02.018Z,97144.34
2019-05-21T06:25:08.089Z,97157.67
2019-05-21T06:26:11.958Z,97150.42
2019-05-21T06:27:16.555Z,97149.09
2019-05-21T06:28:20.573Z,97152.42
2019-05-21T06:29:24.840Z,97148.36
2019-05-21T06:30:28.543Z,97144.11
2019-05-21T06:31:32.728Z,97136.47
2019-05-21T06:32:36.429Z,97141.42
2019-05-21T06:33:40.614Z,97143.17
2019-05-21T06:34:44.680Z,97135.87
2019-05-21T06:35:48.883Z,97134.13
2019-05-21T06:36:52.518Z,97133.45
2019-05-21T06:37:57.183Z,97127.78
2019-05-21T06:39:00.843Z,97130.61
2019-05-21T06:40:06.254Z,97129.37
2019-05-21T06:41:10.057Z,97129.56
2019-05-21T06:42:14.264Z,97134.13
2019-05-21T06:43:17.932Z,97133.84
2019-05-21T06:44:22.150Z,97135.65
2019-05-21T06:45:25.979Z,97131.23
2019-05-21T06:46:30.184Z,97134.64
2019-05-21T06:47:33.816Z,97130.79
2019-05-21T06:48:38.036Z,97132.20
2019-05-21T06:49:41.694Z,97130.91
2019-05-21T06:50:45.873Z,97126.30
2019-05-21T06:51:49.547Z,97118.79
2019-05-21T06:52:53.756Z,97123.66
2019-05-21T06:53:57.439Z,97125.84
2019-05-21T06:55:01.657Z,97121.41
2019-05-21T06:56:07.673Z,97122.02
2019-05-21T06:57:11.277Z,97118.34
2019-05-21T06:58:14.935Z,97121.45
2019-05-21T06:59:19.198Z,97119.52
2019-05-21T07:00:23.057Z,97115.97
2019-05-21T07:01:29.182Z,97116.17
2019-05-21T07:02:32.568Z,97117.95
2019-05-21T07:03:36.699Z,97114.09
2019-05-21T07:04:40.387Z,97111.73
2019-05-21T07:05:58.223Z,97109.41
2019-05-21T07:06:49.978Z,97110.23
2019-05-21T07:07:54.900Z,97103.98
2019-05-21T07:08:58.531Z,97110.01
2019-05-21T07:10:02.884Z,97110.16
2019-05-21T07:11:06.970Z,97109.39
2019-05-21T07:12:11.571Z,97109.37
2019-05-21T07:13:15.298Z,97105.27
2019-05-21T07:14:19.580Z,97102.33
2019-05-21T07:15:23.289Z,97103.81
2019-05-21T07:16:27.474Z,97100.23
2019-05-21T07:17:31.138Z,97095.83
2019-05-21T07:18:35.338Z,97096.55
2019-05-21T07:19:39.538Z,97095.22
2019-05-21T07:20:43.804Z,97096.75
2019-05-21T07:21:47.799Z,97095.70
2019-05-21T07:22:52.166Z,97087.78
2019-05-21T07:23:55.936Z,97096.53
2019-05-21T07:25:00.151Z,97098.55
2019-05-21T07:26:04.206Z,97091.41
2019-05-21T07:27:08.800Z,97089.92
2019-05-21T07:28:12.512Z,97091.23
2019-05-21T07:29:16.707Z,97087.33
2019-05-21T07:30:20.346Z,97092.67
2019-05-21T07:31:24.595Z,97088.05
2019-05-21T07:32:28.267Z,97087.45
2019-05-21T07:33:32.791Z,97086.64
2019-05-21T07:34:36.424Z,97080.73
2019-05-21T07:35:40.609Z,97076.17
2019-05-21T07:36:44.315Z,97078.21
2019-05-21T07:37:48.514Z,97080.32
2019-05-21T07:38:54.140Z,97074.16
2019-05-21T07:39:58.063Z,97080.14
2019-05-21T07:41:01.816Z,97072.61
2019-05-21T07:42:06.015Z,97069.84
2019-05-21T07:43:09.685Z,97069.11
2019-05-21T07:44:13.973Z,97063.62
2019-05-21T07:45:17.606Z,97061.84
2019-05-21T07:46:21.836Z,97066.70
2019-05-21T07:47:25.481Z,97064.73
2019-05-21T07:48:29.720Z,97059.53
2019-05-21T07:49:33.392Z,97058.46
2019-05-21T07:50:37.606Z,97057.99
2019-05-21T07:51:41.543Z,97063.17
2019-05-21T07:52:45.785Z,97064.33
2019-05-21T07:53:49.820Z,97068.81
2019-05-21T07:54:54.021Z,97068.07
2019-05-21T07:55:57.732Z,97063.25
2019-05-21T07:57:01.952Z,97062.14
2019-05-21T07:58:05.617Z,97065.89
2019-05-21T07:59:09.800Z,97066.59
2019-05-21T08:00:13.555Z,97066.91
2019-05-21T08:01:17.867Z,97067.38
2019-05-21T08:02:21.531Z,97070.23
2019-05-21T08:03:25.756Z,97071.34
2019-05-21T08:04:29.744Z,97073.79
2019-05-21T08:05:33.955Z,97078.19
2019-05-21T08:06:37.610Z,97072.80
2019-05-21T08:07:41.802Z,97075.85
2019-05-21T08:08:45.583Z,97076.20
2019-05-21T08:09:49.804Z,97074.64
2019-05-21T08:10:53.436Z,97071.23
2019-05-21T08:11:57.628Z,97075.91
2019-05-21T08:13:01.383Z,97071.27
2019-05-21T08:14:06.001Z,97071.98
2019-05-21T08:15:10.029Z,97069.30
2019-05-21T08:16:14.108Z,97071.75
2019-05-21T08:17:17.691Z,97068.73
2019-05-21T08:18:22.007Z,97063.14
2019-05-21T08:19:25.657Z,97064.97
2019-05-21T08:20:30.095Z,97070.03
2019-05-21T08:21:33.750Z,97072.48
2019-05-21T08:22:37.942Z,97070.66
2019-05-21T08:23:41.589Z,97072.22
2019-05-21T08:24:45.753Z,97067.53
2019-05-21T08:25:49.740Z,97063.78
2019-05-21T08:26:53.999Z,97071.19
2019-05-21T08:27:57.634Z,97069.69
2019-05-21T08:29:01.904Z,97069.69
2019-05-21T08:30:07.484Z,97067.50
2019-05-21T08:31:12.077Z,97075.06
2019-05-21T08:32:15.633Z,97071.89
2019-05-21T08:33:20.259Z,97067.80
2019-05-21T08:34:23.927Z,97067.34
2019-05-21T08:35:28.217Z,97069.84
2019-05-21T08:36:32.220Z,97076.13
2019-05-21T08:37:36.408Z,97073.34
2019-05-21T08:38:40.091Z,97074.80
2019-05-21T08:39:44.373Z,97072.10
2019-05-21T08:40:48.007Z,97073.78
2019-05-21T08:41:52.263Z,97078.53
2019-05-21T08:42:55.895Z,97073.87
2019-05-21T08:44:00.078Z,97071.98
2019-05-21T08:45:05.352Z,97079.72
2019-05-21T08:46:09.761Z,97072.84
2019-05-21T08:47:13.401Z,97074.39
2019-05-21T08:48:17.589Z,97074.52
2019-05-21T08:49:21.319Z,97079.68
2019-05-21T08:50:25.607Z,97075.81
2019-05-21T08:51:29.260Z,97069.38
2019-05-21T08:52:33.462Z,97072.50
2019-05-21T08:53:37.097Z,97071.89
2019-05-21T08:54:50.977Z,97069.66
2019-05-21T08:55:54.669Z,97078.62
2019-05-21T08:56:59.246Z,97071.38
2019-05-21T08:58:07.274Z,97068.28
2019-05-21T08:59:08.804Z,97070.30
2019-05-21T09:00:15.580Z,97063.27
2019-05-21T09:01:19.816Z,97065.84
2019-05-21T09:02:24.628Z,97071.17
2019-05-21T09:03:29.231Z,97071.95
2019-05-21T09:04:45.994Z,97073.69
2019-05-21T09:05:38.778Z,97071.11
2019-05-21T09:06:42.470Z,97072.94
2019-05-21T09:07:52.919Z,97075.89
2019-05-21T09:08:52.042Z,97076.97
2019-05-21T09:09:56.243Z,97082.63
2019-05-21T09:11:00.263Z,97081.83
2019-05-21T09:12:04.496Z,97081.91
2019-05-21T09:13:08.126Z,97089.70
2019-05-21T09:14:12.700Z,97079.17
2019-05-21T09:15:17.306Z,97083.95
2019-05-21T09:16:21.516Z,97081.86
2019-05-21T09:17:25.328Z,97083.97
2019-05-21T09:18:29.572Z,97083.70
2019-05-21T09:19:36.451Z,97081.01
2019-05-21T09:20:39.136Z,97081.98
2019-05-21T09:21:42.785Z,97076.11
2019-05-21T09:22:47.026Z,97078.41
2019-05-21T09:23:50.727Z,97078.89
2019-05-21T09:24:54.941Z,97075.19
2019-05-21T09:25:58.591Z,97072.58
2019-05-21T09:27:02.835Z,97076.44
2019-05-21T09:28:06.600Z,97074.77
2019-05-21T09:29:10.906Z,97077.74
2019-05-21T09:30:16.823Z,97078.42
2019-05-21T09:31:21.016Z,97070.45
2019-05-21T09:32:24.676Z,97084.16
2019-05-21T09:33:28.955Z,97081.10
2019-05-21T09:34:47.536Z,97070.71
2019-05-21T09:35:38.562Z,97074.52
2019-05-21T09:36:42.180Z,97071.61
2019-05-21T09:37:46.463Z,97068.80
2019-05-21T09:38:50.145Z,97069.28
2019-05-21T09:39:54.351Z,97070.69
2019-05-21T09:40:58.032Z,97071.55
2019-05-21T09:42:02.478Z,97068.47
2019-05-21T09:43:06.088Z,97072.63
2019-05-21T09:44:10.329Z,97069.53
2019-05-21T09:45:14.899Z,97070.19
2019-05-21T09:46:19.081Z,97072.23
2019-05-21T09:47:22.743Z,97068.91
2019-05-21T09:48:26.986Z,97072.50
2019-05-21T09:49:30.645Z,97064.44
2019-05-21T09:50:35.822Z,97067.48
2019-05-21T09:51:39.777Z,97069.27
2019-05-21T09:52:43.958Z,97071.14
2019-05-21T09:53:47.616Z,97070.91
2019-05-21T09:54:51.932Z,97071.42
2019-05-21T09:55:55.998Z,97070.05
2019-05-21T09:57:00.271Z,97065.58
2019-05-21T09:58:05.552Z,97072.81
2019-05-21T09:59:15.022Z,97068.22
2019-05-21T10:00:36.210Z,97068.33
2019-05-21T10:01:41.961Z,97073.23
2019-05-21T10:02:46.131Z,97063.95
2019-05-21T10:03:54.549Z,97066.35
2019-05-21T10:04:58.861Z,97067.48
2019-05-21T10:06:02.558Z,97062.95
2019-05-21T10:07:06.786Z,97062.91
2019-05-21T10:08:10.430Z,97065.18
2019-05-21T10:09:19.147Z,97064.68
2019-05-21T10:10:22.856Z,97074.33
2019-05-21T10:11:27.061Z,97066.43
2019-05-21T10:12:30.866Z,97063.42
2019-05-21T10:13:35.127Z,97063.00
2019-05-21T10:14:38.828Z,97061.60
2019-05-21T10:15:43.071Z,97065.03
2019-05-21T10:16:46.770Z,97060.66
2019-05-21T10:17:53.055Z,97064.02
2019-05-21T10:18:57.042Z,97064.51
2019-05-21T10:20:01.246Z,97064.69
2019-05-21T10:21:05.182Z,97072.66
2019-05-21T10:22:10.089Z,97064.55
2019-05-21T10:23:14.142Z,97062.38
2019-05-21T10:24:18.351Z,97060.06
2019-05-21T10:25:22.020Z,97059.95
2019-05-21T10:26:26.369Z,97060.48
2019-05-21T10:27:30.090Z,97066.30
2019-05-21T10:28:34.306Z,97066.52
2019-05-21T10:29:38.280Z,97068.26
2019-05-21T10:30:42.564Z,97065.71
2019-05-21T10:31:46.296Z,97062.32
2019-05-21T10:32:50.562Z,97055.58
2019-05-21T10:33:54.351Z,97061.77
2019-05-21T10:35:00.553Z,97064.25
2019-05-21T10:36:04.884Z,97058.32
2019-05-21T10:37:09.103Z,97069.79
2019-05-21T10:38:12.845Z,97068.91
2019-05-21T10:39:17.212Z,97064.54
2019-05-21T10:40:21.235Z,97061.10
2019-05-21T10:41:25.489Z,97068.47
2019-05-21T10:42:29.082Z,97064.02
2019-05-21T10:43:33.338Z,97062.28
2019-05-21T10:44:37.141Z,97067.36
2019-05-21T10:45:41.325Z,97060.13
2019-05-21T10:46:45.099Z,97067.63
2019-05-21T10:47:49.120Z,97062.46
2019-05-21T10:48:52.824Z,97058.08
2019-05-21T10:49:57.048Z,97067.27
2019-05-21T10:51:01.477Z,97064.94
2019-05-21T10:52:06.172Z,97060.64
2019-05-21T10:53:09.817Z,97058.84
2019-05-21T10:54:14.035Z,97059.02
2019-05-21T10:55:17.901Z,97062.39
2019-05-21T10:56:22.120Z,97061.44
2019-05-21T10:57:26.261Z,97063.07
2019-05-21T10:58:30.672Z,97063.07
2019-05-21T10:59:34.384Z,97067.63
2019-05-21T11:00:38.799Z,97059.65
2019-05-21T11:01:56.182Z,97062.67
2019-05-21T11:03:07.384Z,97058.58
2019-05-21T11:04:15.436Z,97070.33
2019-05-21T11:05:36.396Z,97070.88
2019-05-21T11:06:41.435Z,97072.03
2019-05-21T11:07:45.753Z,97065.66
2019-05-21T11:08:49.424Z,97067.92
2019-05-21T11:09:53.669Z,97074.59
2019-05-21T11:10:57.464Z,97066.84
2019-05-21T11:12:01.805Z,97062.59
2019-05-21T11:13:05.713Z,97063.06
2019-05-21T11:14:10.292Z,97063.17
2019-05-21T11:15:14.609Z,97064.30
2019-05-21T11:16:18.795Z,97064.26
2019-05-21T11:17:22.498Z,97067.08
2019-05-21T11:18:26.670Z,97067.87
2019-05-21T11:19:33.226Z,97067.55
2019-05-21T11:20:37.559Z,97065.50
2019-05-21T11:21:41.263Z,97073.14
2019-05-21T11:22:45.556Z,97059.05
2019-05-21T11:23:49.256Z,97061.56
2019-05-21T11:24:53.669Z,97060.08
2019-05-21T11:25:57.326Z,97056.89
2019-05-21T11:27:04.728Z,97057.52
2019-05-21T11:28:07.518Z,97048.37
2019-05-21T11:29:11.703Z,97056.80
2019-05-21T11:30:17.180Z,97054.91
2019-05-21T11:31:21.374Z,97059.84
2019-05-21T11:32:25.077Z,97057.98
2019-05-21T11:33:29.339Z,97053.18
2019-05-21T11:34:33.106Z,97053.05
2019-05-21T11:35:37.374Z,97065.13
2019-05-21T11:36:41.155Z,97067.19
2019-05-21T11:37:47.845Z,97063.92
2019-05-21T11:38:50.817Z,97060.98
2019-05-21T11:39:55.058Z,97060.41
2019-05-21T11:40:58.807Z,97063.17
2019-05-21T11:42:03.051Z,97055.93
2019-05-21T11:43:07.874Z,97056.18
2019-05-21T11:44:12.217Z,97061.60
2019-05-21T11:45:31.072Z,97054.92
2019-05-21T11:46:21.986Z,97054.07
2019-05-21T11:47:25.766Z,97054.39
2019-05-21T11:48:30.199Z,97055.05
2019-05-21T11:49:33.862Z,97060.83
2019-05-21T11:50:38.091Z,97054.97
2019-05-21T11:51:42.096Z,97055.42
2019-05-21T11:52:46.594Z,97061.58
2019-05-21T11:53:50.275Z,97058.32
2019-05-21T11:54:55.999Z,97053.51
2019-05-21T11:55:59.695Z,97048.02
2019-05-21T11:57:03.923Z,97057.29
2019-05-21T11:58:07.578Z,97053.44
2019-05-21T11:59:11.850Z,97060.80
2019-05-21T12:00:16.642Z,97061.22
2019-05-21T12:01:22.544Z,97055.91
2019-05-21T12:02:26.206Z,97046.88
2019-05-21T12:03:30.392Z,97045.24
2019-05-21T12:04:34.430Z,97050.23
2019-05-21T12:05:38.680Z,97049.14
2019-05-21T12:06:42.333Z,97041.34
2019-05-21T12:07:46.524Z,97044.17
2019-05-21T12:08:56.794Z,97053.50
2019-05-21T12:09:56.189Z,97055.05
2019-05-21T12:10:59.856Z,97050.48
2019-05-21T12:12:04.071Z,97048.02
2019-05-21T12:13:07.792Z,97053.00
2019-05-21T12:14:11.976Z,97048.01
2019-05-21T12:15:16.037Z,97052.47
2019-05-21T12:16:20.348Z,97060.06
2019-05-21T12:17:23.985Z,97052.98
2019-05-21T12:18:28.232Z,97053.61
2019-05-21T12:19:31.886Z,97039.83
2019-05-21T12:20:37.492Z,97041.39
2019-05-21T12:21:41.785Z,97043.61
2019-05-21T12:22:46.418Z,97046.57
2019-05-21T12:23:50.075Z,97043.00
2019-05-21T12:24:54.324Z,97046.59
2019-05-21T12:25:58.043Z,97041.44
2019-05-21T12:27:02.327Z,97038.69
2019-05-21T12:28:06.039Z,97045.22
2019-05-21T12:29:10.285Z,97041.02
2019-05-21T12:30:14.589Z,97047.11
2019-05-21T12:31:18.790Z,97041.80
2019-05-21T12:32:22.687Z,97049.40
2019-05-21T12:33:26.971Z,97043.64
2019-05-21T12:34:30.604Z,97040.31
2019-05-21T12:35:34.819Z,97042.58
2019-05-21T12:36:38.503Z,97034.44
2019-05-21T12:37:42.579Z,97030.49
2019-05-21T12:38:46.322Z,97035.91
2019-05-21T12:39:50.584Z,97026.52
2019-05-21T12:40:54.221Z,97032.33